sensor_id;sensor_type;location;lat;lon;timestamp;P1;durP1;ratioP1;P2;durP2;ratioP2
10343;SDS011;5217;43.960;10.954;2023-08-06T00:01:52;1.33;;;0.80;;
10343;SDS011;5217;43.960;10.954;2023-08-06T00:04:21;2.33;;;0.93;;
10343;SDS011;5217;43.960;10.954;2023-08-06T00:06:51;3.40;;;1.00;;
10343;SDS011;5217;43.960;10.954;2023-08-06T00:09:19;1.95;;;0.95;;
10343;SDS011;5217;43.960;10.954;2023-08-06T00:11:47;1.48;;;0.93;;
10343;SDS011;5217;43.960;10.954;2023-08-06T00:14:16;1.90;;;1.10;;
10343;SDS011;5217;43.960;10.954;2023-08-06T00:16:44;0.98;;;0.98;;
10343;SDS011;5217;43.960;10.954;2023-08-06T00:19:13;1.88;;;1.10;;
10343;SDS011;5217;43.960;10.954;2023-08-06T00:21:41;0.90;;;0.90;;
10343;SDS011;5217;43.960;10.954;2023-08-06T00:24:11;1.95;;;0.90;;
10343;SDS011;5217;43.960;10.954;2023-08-06T00:26:40;1.40;;;0.90;;
10343;SDS011;5217;43.960;10.954;2023-08-06T00:29:08;1.05;;;0.90;;
10343;SDS011;5217;43.960;10.954;2023-08-06T00:31:36;0.80;;;0.80;;
10343;SDS011;5217;43.960;10.954;2023-08-06T00:34:05;1.10;;;1.00;;
10343;SDS011;5217;43.960;10.954;2023-08-06T00:36:33;1.67;;;0.90;;
10343;SDS011;5217;43.960;10.954;2023-08-06T00:39:02;0.80;;;0.80;;
10343;SDS011;5217;43.960;10.954;2023-08-06T00:41:32;1.48;;;1.00;;
10343;SDS011;5217;43.960;10.954;2023-08-06T00:44:00;1.88;;;1.15;;
10343;SDS011;5217;43.960;10.954;2023-08-06T00:46:28;0.98;;;0.90;;
10343;SDS011;5217;43.960;10.954;2023-08-06T00:48:59;1.25;;;0.90;;
10343;SDS011;5217;43.960;10.954;2023-08-06T00:51:27;1.10;;;1.00;;
10343;SDS011;5217;43.960;10.954;2023-08-06T00:53:56;1.17;;;0.98;;
10343;SDS011;5217;43.960;10.954;2023-08-06T00:56:25;1.75;;;1.20;;
10343;SDS011;5217;43.960;10.954;2023-08-06T00:58:54;1.02;;;0.93;;
10343;SDS011;5217;43.960;10.954;2023-08-06T01:01:23;1.38;;;1.27;;
10343;SDS011;5217;43.960;10.954;2023-08-06T01:03:51;2.20;;;1.10;;
10343;SDS011;5217;43.960;10.954;2023-08-06T01:06:23;1.35;;;1.00;;
10343;SDS011;5217;43.960;10.954;2023-08-06T01:09:01;1.65;;;0.93;;
10343;SDS011;5217;43.960;10.954;2023-08-06T01:11:38;1.08;;;0.98;;
10343;SDS011;5217;43.960;10.954;2023-08-06T01:14:21;1.65;;;1.25;;
10343;SDS011;5217;43.960;10.954;2023-08-06T01:16:55;3.22;;;0.90;;
10343;SDS011;5217;43.960;10.954;2023-08-06T01:19:27;2.05;;;0.98;;
10343;SDS011;5217;43.960;10.954;2023-08-06T01:21:56;1.35;;;1.10;;
10343;SDS011;5217;43.960;10.954;2023-08-06T01:24:25;3.90;;;0.90;;
10343;SDS011;5217;43.960;10.954;2023-08-06T01:26:55;1.38;;;0.88;;
10343;SDS011;5217;43.960;10.954;2023-08-06T01:29:32;4.03;;;0.95;;
10343;SDS011;5217;43.960;10.954;2023-08-06T01:32:06;1.27;;;1.17;;
10343;SDS011;5217;43.960;10.954;2023-08-06T01:34:39;0.80;;;0.80;;
10343;SDS011;5217;43.960;10.954;2023-08-06T01:37:15;3.00;;;0.90;;
10343;SDS011;5217;43.960;10.954;2023-08-06T01:39:44;1.15;;;1.05;;
10343;SDS011;5217;43.960;10.954;2023-08-06T01:42:13;1.40;;;1.00;;
10343;SDS011;5217;43.960;10.954;2023-08-06T01:44:41;0.95;;;0.95;;
10343;SDS011;5217;43.960;10.954;2023-08-06T01:47:10;2.20;;;0.90;;
10343;SDS011;5217;43.960;10.954;2023-08-06T01:49:38;0.90;;;0.90;;
10343;SDS011;5217;43.960;10.954;2023-08-06T01:52:07;2.38;;;1.08;;
10343;SDS011;5217;43.960;10.954;2023-08-06T01:54:37;3.10;;;1.00;;
10343;SDS011;5217;43.960;10.954;2023-08-06T01:57:05;1.05;;;0.80;;
10343;SDS011;5217;43.960;10.954;2023-08-06T01:59:34;2.13;;;0.90;;
10343;SDS011;5217;43.960;10.954;2023-08-06T02:02:02;0.98;;;0.90;;
10343;SDS011;5217;43.960;10.954;2023-08-06T02:04:31;1.45;;;1.10;;
10343;SDS011;5217;43.960;10.954;2023-08-06T02:06:59;1.63;;;0.95;;
10343;SDS011;5217;43.960;10.954;2023-08-06T02:09:28;0.90;;;0.90;;
10343;SDS011;5217;43.960;10.954;2023-08-06T02:11:57;1.17;;;0.93;;
10343;SDS011;5217;43.960;10.954;2023-08-06T02:14:26;1.55;;;0.95;;
10343;SDS011;5217;43.960;10.954;2023-08-06T02:16:54;1.20;;;1.00;;
10343;SDS011;5217;43.960;10.954;2023-08-06T02:19:22;2.70;;;1.02;;
10343;SDS011;5217;43.960;10.954;2023-08-06T02:21:51;1.83;;;1.05;;
10343;SDS011;5217;43.960;10.954;2023-08-06T02:24:20;1.20;;;1.10;;
10343;SDS011;5217;43.960;10.954;2023-08-06T02:26:48;1.00;;;0.90;;
10343;SDS011;5217;43.960;10.954;2023-08-06T02:29:19;1.30;;;1.00;;
10343;SDS011;5217;43.960;10.954;2023-08-06T02:31:47;1.27;;;0.85;;
10343;SDS011;5217;43.960;10.954;2023-08-06T02:34:16;4.00;;;1.38;;
10343;SDS011;5217;43.960;10.954;2023-08-06T02:36:45;0.90;;;0.90;;
10343;SDS011;5217;43.960;10.954;2023-08-06T02:39:23;0.90;;;0.90;;
10343;SDS011;5217;43.960;10.954;2023-08-06T02:41:52;1.10;;;1.10;;
10343;SDS011;5217;43.960;10.954;2023-08-06T02:44:22;2.63;;;1.05;;
10343;SDS011;5217;43.960;10.954;2023-08-06T02:46:51;2.90;;;1.00;;
10343;SDS011;5217;43.960;10.954;2023-08-06T02:49:19;1.45;;;1.10;;
10343;SDS011;5217;43.960;10.954;2023-08-06T02:51:47;1.17;;;1.08;;
10343;SDS011;5217;43.960;10.954;2023-08-06T02:54:16;1.58;;;0.98;;
10343;SDS011;5217;43.960;10.954;2023-08-06T02:56:45;0.98;;;0.93;;
10343;SDS011;5217;43.960;10.954;2023-08-06T02:59:14;2.53;;;1.08;;
10343;SDS011;5217;43.960;10.954;2023-08-06T03:01:43;1.77;;;1.00;;
10343;SDS011;5217;43.960;10.954;2023-08-06T03:04:12;1.02;;;1.00;;
10343;SDS011;5217;43.960;10.954;2023-08-06T03:06:40;0.82;;;0.82;;
10343;SDS011;5217;43.960;10.954;2023-08-06T03:09:08;1.38;;;0.95;;
10343;SDS011;5217;43.960;10.954;2023-08-06T03:11:37;0.98;;;0.90;;
10343;SDS011;5217;43.960;10.954;2023-08-06T03:14:05;1.05;;;1.00;;
10343;SDS011;5217;43.960;10.954;2023-08-06T03:16:34;1.00;;;1.00;;
10343;SDS011;5217;43.960;10.954;2023-08-06T03:19:04;0.82;;;0.82;;
10343;SDS011;5217;43.960;10.954;2023-08-06T03:21:32;2.47;;;0.90;;
10343;SDS011;5217;43.960;10.954;2023-08-06T03:24:00;0.90;;;0.90;;
10343;SDS011;5217;43.960;10.954;2023-08-06T03:26:29;1.67;;;1.10;;
10343;SDS011;5217;43.960;10.954;2023-08-06T03:28:57;2.05;;;1.15;;
10343;SDS011;5217;43.960;10.954;2023-08-06T03:31:26;3.17;;;1.00;;
10343;SDS011;5217;43.960;10.954;2023-08-06T03:33:54;1.88;;;0.90;;
10343;SDS011;5217;43.960;10.954;2023-08-06T03:36:24;2.25;;;0.90;;
10343;SDS011;5217;43.960;10.954;2023-08-06T03:38:53;2.72;;;0.90;;
10343;SDS011;5217;43.960;10.954;2023-08-06T03:41:22;1.23;;;0.90;;
10343;SDS011;5217;43.960;10.954;2023-08-06T03:43:50;2.10;;;1.00;;
10343;SDS011;5217;43.960;10.954;2023-08-06T03:46:18;2.25;;;1.15;;
10343;SDS011;5217;43.960;10.954;2023-08-06T03:48:47;0.80;;;0.80;;
10343;SDS011;5217;43.960;10.954;2023-08-06T03:51:15;1.25;;;0.90;;
10343;SDS011;5217;43.960;10.954;2023-08-06T03:53:45;0.90;;;0.90;;
10343;SDS011;5217;43.960;10.954;2023-08-06T03:56:13;2.50;;;1.02;;
10343;SDS011;5217;43.960;10.954;2023-08-06T03:58:42;0.90;;;0.90;;
10343;SDS011;5217;43.960;10.954;2023-08-06T04:01:10;1.00;;;0.90;;
10343;SDS011;5217;43.960;10.954;2023-08-06T04:03:38;1.08;;;0.98;;
10343;SDS011;5217;43.960;10.954;2023-08-06T04:06:07;1.08;;;0.95;;
10343;SDS011;5217;43.960;10.954;2023-08-06T04:08:36;3.25;;;1.00;;
10343;SDS011;5217;43.960;10.954;2023-08-06T04:11:06;1.75;;;1.05;;
10343;SDS011;5217;43.960;10.954;2023-08-06T04:13:34;1.13;;;1.02;;
10343;SDS011;5217;43.960;10.954;2023-08-06T04:16:03;0.80;;;0.80;;
10343;SDS011;5217;43.960;10.954;2023-08-06T04:18:32;1.67;;;1.10;;
10343;SDS011;5217;43.960;10.954;2023-08-06T04:21:01;1.98;;;1.00;;
10343;SDS011;5217;43.960;10.954;2023-08-06T04:23:29;1.05;;;0.93;;
10343;SDS011;5217;43.960;10.954;2023-08-06T04:25:58;1.48;;;1.10;;
10343;SDS011;5217;43.960;10.954;2023-08-06T04:28:28;0.90;;;0.90;;
10343;SDS011;5217;43.960;10.954;2023-08-06T04:30:56;1.23;;;0.90;;
10343;SDS011;5217;43.960;10.954;2023-08-06T04:33:26;1.00;;;1.00;;
10343;SDS011;5217;43.960;10.954;2023-08-06T04:35:55;1.00;;;0.95;;
10343;SDS011;5217;43.960;10.954;2023-08-06T04:38:23;1.10;;;1.02;;
10343;SDS011;5217;43.960;10.954;2023-08-06T04:40:52;2.25;;;1.10;;
10343;SDS011;5217;43.960;10.954;2023-08-06T04:43:21;1.08;;;0.98;;
10343;SDS011;5217;43.960;10.954;2023-08-06T04:45:51;1.05;;;1.00;;
10343;SDS011;5217;43.960;10.954;2023-08-06T04:48:22;3.22;;;1.00;;
10343;SDS011;5217;43.960;10.954;2023-08-06T04:50:50;1.13;;;1.02;;
10343;SDS011;5217;43.960;10.954;2023-08-06T04:53:19;1.52;;;0.98;;
10343;SDS011;5217;43.960;10.954;2023-08-06T04:55:47;1.58;;;1.10;;
10343;SDS011;5217;43.960;10.954;2023-08-06T04:58:15;1.10;;;1.00;;
10343;SDS011;5217;43.960;10.954;2023-08-06T05:00:44;1.52;;;0.93;;
10343;SDS011;5217;43.960;10.954;2023-08-06T05:03:14;4.57;;;1.30;;
10343;SDS011;5217;43.960;10.954;2023-08-06T05:05:42;1.55;;;0.90;;
10343;SDS011;5217;43.960;10.954;2023-08-06T05:08:13;0.90;;;0.90;;
10343;SDS011;5217;43.960;10.954;2023-08-06T05:10:43;0.93;;;0.90;;
10343;SDS011;5217;43.960;10.954;2023-08-06T05:13:12;1.10;;;1.02;;
10343;SDS011;5217;43.960;10.954;2023-08-06T05:15:41;1.35;;;1.13;;
10343;SDS011;5217;43.960;10.954;2023-08-06T05:18:11;1.27;;;1.10;;
10343;SDS011;5217;43.960;10.954;2023-08-06T05:20:41;1.30;;;1.20;;
10343;SDS011;5217;43.960;10.954;2023-08-06T05:23:10;1.20;;;1.10;;
10343;SDS011;5217;43.960;10.954;2023-08-06T05:25:39;1.80;;;1.13;;
10343;SDS011;5217;43.960;10.954;2023-08-06T05:28:07;1.95;;;1.10;;
10343;SDS011;5217;43.960;10.954;2023-08-06T05:30:38;1.50;;;1.00;;
10343;SDS011;5217;43.960;10.954;2023-08-06T05:33:07;3.08;;;1.10;;
10343;SDS011;5217;43.960;10.954;2023-08-06T05:35:37;3.10;;;1.23;;
10343;SDS011;5217;43.960;10.954;2023-08-06T05:38:05;1.15;;;0.80;;
10343;SDS011;5217;43.960;10.954;2023-08-06T05:40:34;2.10;;;1.17;;
10343;SDS011;5217;43.960;10.954;2023-08-06T05:43:03;1.35;;;1.10;;
10343;SDS011;5217;43.960;10.954;2023-08-06T05:45:31;1.30;;;1.20;;
10343;SDS011;5217;43.960;10.954;2023-08-06T05:48:00;1.67;;;1.10;;
10343;SDS011;5217;43.960;10.954;2023-08-06T05:50:28;1.70;;;1.00;;
10343;SDS011;5217;43.960;10.954;2023-08-06T05:52:58;1.42;;;1.00;;
10343;SDS011;5217;43.960;10.954;2023-08-06T05:55:27;1.73;;;0.95;;
10343;SDS011;5217;43.960;10.954;2023-08-06T05:57:55;4.25;;;1.27;;
10343;SDS011;5217;43.960;10.954;2023-08-06T06:00:24;2.05;;;1.13;;
10343;SDS011;5217;43.960;10.954;2023-08-06T06:02:53;1.20;;;1.10;;
10343;SDS011;5217;43.960;10.954;2023-08-06T06:05:21;1.35;;;1.10;;
10343;SDS011;5217;43.960;10.954;2023-08-06T06:10:45;3.90;;;1.25;;
10343;SDS011;5217;43.960;10.954;2023-08-06T06:13:13;1.45;;;1.10;;
10343;SDS011;5217;43.960;10.954;2023-08-06T06:15:41;1.45;;;1.20;;
10343;SDS011;5217;43.960;10.954;2023-08-06T06:18:10;1.42;;;1.20;;
10343;SDS011;5217;43.960;10.954;2023-08-06T06:20:38;2.20;;;1.20;;
10343;SDS011;5217;43.960;10.954;2023-08-06T06:23:07;1.15;;;1.05;;
10343;SDS011;5217;43.960;10.954;2023-08-06T06:25:41;3.10;;;1.30;;
10343;SDS011;5217;43.960;10.954;2023-08-06T06:28:10;4.13;;;1.42;;
10343;SDS011;5217;43.960;10.954;2023-08-06T06:30:38;2.15;;;1.20;;
10343;SDS011;5217;43.960;10.954;2023-08-06T06:33:08;1.10;;;1.00;;
10343;SDS011;5217;43.960;10.954;2023-08-06T06:35:36;1.98;;;1.10;;
10343;SDS011;5217;43.960;10.954;2023-08-06T06:38:05;1.10;;;1.00;;
10343;SDS011;5217;43.960;10.954;2023-08-06T06:40:33;1.13;;;1.00;;
10343;SDS011;5217;43.960;10.954;2023-08-06T06:43:53;1.10;;;1.00;;
10343;SDS011;5217;43.960;10.954;2023-08-06T06:46:25;1.70;;;1.00;;
10343;SDS011;5217;43.960;10.954;2023-08-06T06:48:54;1.20;;;1.10;;
10343;SDS011;5217;43.960;10.954;2023-08-06T06:51:22;1.15;;;1.05;;
10343;SDS011;5217;43.960;10.954;2023-08-06T06:53:50;1.20;;;1.08;;
10343;SDS011;5217;43.960;10.954;2023-08-06T06:56:19;2.03;;;1.20;;
10343;SDS011;5217;43.960;10.954;2023-08-06T06:58:47;1.30;;;1.20;;
10343;SDS011;5217;43.960;10.954;2023-08-06T07:01:17;1.00;;;1.00;;
10343;SDS011;5217;43.960;10.954;2023-08-06T07:03:46;1.00;;;1.00;;
10343;SDS011;5217;43.960;10.954;2023-08-06T07:06:14;3.53;;;1.20;;
10343;SDS011;5217;43.960;10.954;2023-08-06T07:08:44;0.93;;;0.90;;
10343;SDS011;5217;43.960;10.954;2023-08-06T07:11:13;1.48;;;1.00;;
10343;SDS011;5217;43.960;10.954;2023-08-06T07:13:41;2.97;;;1.10;;
10343;SDS011;5217;43.960;10.954;2023-08-06T07:16:10;1.15;;;1.05;;
10343;SDS011;5217;43.960;10.954;2023-08-06T07:18:40;1.00;;;1.00;;
10343;SDS011;5217;43.960;10.954;2023-08-06T07:21:08;2.20;;;1.20;;
10343;SDS011;5217;43.960;10.954;2023-08-06T07:23:37;1.33;;;1.00;;
10343;SDS011;5217;43.960;10.954;2023-08-06T07:26:05;1.17;;;1.00;;
10343;SDS011;5217;43.960;10.954;2023-08-06T07:28:34;2.83;;;1.13;;
10343;SDS011;5217;43.960;10.954;2023-08-06T07:31:02;1.67;;;1.15;;
10343;SDS011;5217;43.960;10.954;2023-08-06T07:33:34;2.90;;;1.30;;
10343;SDS011;5217;43.960;10.954;2023-08-06T07:36:08;1.95;;;1.10;;
10343;SDS011;5217;43.960;10.954;2023-08-06T07:38:37;1.17;;;1.08;;
10343;SDS011;5217;43.960;10.954;2023-08-06T07:41:06;1.42;;;1.20;;
10343;SDS011;5217;43.960;10.954;2023-08-06T07:43:35;2.22;;;1.20;;
10343;SDS011;5217;43.960;10.954;2023-08-06T07:46:03;2.53;;;0.98;;
10343;SDS011;5217;43.960;10.954;2023-08-06T07:51:41;1.70;;;1.33;;
10343;SDS011;5217;43.960;10.954;2023-08-06T07:54:10;1.52;;;1.15;;
10343;SDS011;5217;43.960;10.954;2023-08-06T07:56:38;4.00;;;2.40;;
10343;SDS011;5217;43.960;10.954;2023-08-06T07:59:06;4.57;;;2.95;;
10343;SDS011;5217;43.960;10.954;2023-08-06T08:01:35;3.47;;;3.17;;
10343;SDS011;5217;43.960;10.954;2023-08-06T08:04:04;4.60;;;3.97;;
10343;SDS011;5217;43.960;10.954;2023-08-06T08:06:33;4.50;;;3.67;;
10343;SDS011;5217;43.960;10.954;2023-08-06T08:09:02;3.53;;;3.10;;
10343;SDS011;5217;43.960;10.954;2023-08-06T08:11:31;5.50;;;3.22;;
10343;SDS011;5217;43.960;10.954;2023-08-06T08:13:59;4.35;;;3.28;;
10343;SDS011;5217;43.960;10.954;2023-08-06T08:16:28;8.35;;;5.40;;
10343;SDS011;5217;43.960;10.954;2023-08-06T08:18:56;7.63;;;5.57;;
10343;SDS011;5217;43.960;10.954;2023-08-06T08:21:25;8.10;;;5.00;;
10343;SDS011;5217;43.960;10.954;2023-08-06T08:23:53;7.25;;;4.50;;
10343;SDS011;5217;43.960;10.954;2023-08-06T08:26:23;6.53;;;4.15;;
10343;SDS011;5217;43.960;10.954;2023-08-06T08:28:54;5.78;;;3.63;;
10343;SDS011;5217;43.960;10.954;2023-08-06T08:31:22;5.25;;;3.20;;
10343;SDS011;5217;43.960;10.954;2023-08-06T08:33:51;4.50;;;2.72;;
10343;SDS011;5217;43.960;10.954;2023-08-06T08:36:21;5.13;;;2.67;;
10343;SDS011;5217;43.960;10.954;2023-08-06T08:38:49;2.75;;;2.28;;
10343;SDS011;5217;43.960;10.954;2023-08-06T08:45:32;5.15;;;2.70;;
10343;SDS011;5217;43.960;10.954;2023-08-06T08:48:06;3.78;;;2.55;;
10343;SDS011;5217;43.960;10.954;2023-08-06T08:50:35;3.65;;;2.63;;
10343;SDS011;5217;43.960;10.954;2023-08-06T08:53:04;3.90;;;2.70;;
10343;SDS011;5217;43.960;10.954;2023-08-06T08:55:33;3.38;;;2.53;;
10343;SDS011;5217;43.960;10.954;2023-08-06T08:58:01;4.53;;;2.72;;
10343;SDS011;5217;43.960;10.954;2023-08-06T09:00:30;4.05;;;2.25;;
10343;SDS011;5217;43.960;10.954;2023-08-06T09:03:00;4.35;;;2.55;;
10343;SDS011;5217;43.960;10.954;2023-08-06T09:05:29;5.40;;;2.47;;
10343;SDS011;5217;43.960;10.954;2023-08-06T09:07:59;7.82;;;2.75;;
10343;SDS011;5217;43.960;10.954;2023-08-06T09:10:30;5.00;;;2.58;;
10343;SDS011;5217;43.960;10.954;2023-08-06T09:12:59;5.10;;;2.65;;
10343;SDS011;5217;43.960;10.954;2023-08-06T09:15:28;4.20;;;2.38;;
10343;SDS011;5217;43.960;10.954;2023-08-06T09:17:57;6.30;;;2.75;;
10343;SDS011;5217;43.960;10.954;2023-08-06T09:20:27;5.25;;;2.60;;
10343;SDS011;5217;43.960;10.954;2023-08-06T09:22:59;4.80;;;2.30;;
10343;SDS011;5217;43.960;10.954;2023-08-06T09:25:36;5.68;;;2.63;;
10343;SDS011;5217;43.960;10.954;2023-08-06T09:28:06;4.45;;;2.22;;
10343;SDS011;5217;43.960;10.954;2023-08-06T09:30:35;4.47;;;2.42;;
10343;SDS011;5217;43.960;10.954;2023-08-06T09:33:09;5.03;;;2.58;;
10343;SDS011;5217;43.960;10.954;2023-08-06T09:35:38;5.40;;;2.63;;
10343;SDS011;5217;43.960;10.954;2023-08-06T09:38:06;5.80;;;2.58;;
10343;SDS011;5217;43.960;10.954;2023-08-06T09:40:37;8.85;;;3.90;;
10343;SDS011;5217;43.960;10.954;2023-08-06T09:43:06;35.15;;;23.35;;
10343;SDS011;5217;43.960;10.954;2023-08-06T09:45:35;82.18;;;54.28;;
10343;SDS011;5217;43.960;10.954;2023-08-06T09:48:05;64.40;;;42.72;;
10343;SDS011;5217;43.960;10.954;2023-08-06T09:50:37;32.72;;;21.90;;
10343;SDS011;5217;43.960;10.954;2023-08-06T09:53:07;20.48;;;13.25;;
10343;SDS011;5217;43.960;10.954;2023-08-06T09:55:36;15.70;;;7.88;;
10343;SDS011;5217;43.960;10.954;2023-08-06T09:58:04;9.88;;;4.93;;
10343;SDS011;5217;43.960;10.954;2023-08-06T10:00:34;14.25;;;3.72;;
10343;SDS011;5217;43.960;10.954;2023-08-06T10:03:05;8.43;;;3.63;;
10343;SDS011;5217;43.960;10.954;2023-08-06T10:05:37;11.00;;;3.78;;
10343;SDS011;5217;43.960;10.954;2023-08-06T10:08:06;9.93;;;3.75;;
10343;SDS011;5217;43.960;10.954;2023-08-06T10:10:35;12.02;;;3.67;;
10343;SDS011;5217;43.960;10.954;2023-08-06T10:13:04;10.18;;;3.35;;
10343;SDS011;5217;43.960;10.954;2023-08-06T10:15:35;6.35;;;3.17;;
10343;SDS011;5217;43.960;10.954;2023-08-06T10:18:04;10.80;;;4.70;;
10343;SDS011;5217;43.960;10.954;2023-08-06T10:20:34;17.58;;;9.40;;
10343;SDS011;5217;43.960;10.954;2023-08-06T10:23:04;11.77;;;3.88;;
10343;SDS011;5217;43.960;10.954;2023-08-06T10:25:34;6.05;;;2.92;;
10343;SDS011;5217;43.960;10.954;2023-08-06T10:28:07;12.40;;;3.95;;
10343;SDS011;5217;43.960;10.954;2023-08-06T10:30:43;11.52;;;3.40;;
10343;SDS011;5217;43.960;10.954;2023-08-06T10:33:12;6.05;;;3.20;;
10343;SDS011;5217;43.960;10.954;2023-08-06T10:35:44;7.18;;;3.00;;
10343;SDS011;5217;43.960;10.954;2023-08-06T10:38:18;6.82;;;2.70;;
10343;SDS011;5217;43.960;10.954;2023-08-06T10:40:49;11.93;;;3.33;;
10343;SDS011;5217;43.960;10.954;2023-08-06T10:43:28;8.27;;;3.47;;
10343;SDS011;5217;43.960;10.954;2023-08-06T10:45:58;12.57;;;4.40;;
10343;SDS011;5217;43.960;10.954;2023-08-06T10:48:30;8.75;;;3.90;;
10343;SDS011;5217;43.960;10.954;2023-08-06T10:51:01;8.63;;;3.90;;
10343;SDS011;5217;43.960;10.954;2023-08-06T10:53:32;8.38;;;3.80;;
10343;SDS011;5217;43.960;10.954;2023-08-06T10:56:00;6.30;;;2.70;;
10343;SDS011;5217;43.960;10.954;2023-08-06T10:58:32;6.95;;;2.45;;
10343;SDS011;5217;43.960;10.954;2023-08-06T11:01:01;6.63;;;2.92;;
10343;SDS011;5217;43.960;10.954;2023-08-06T11:03:29;6.32;;;2.72;;
10343;SDS011;5217;43.960;10.954;2023-08-06T11:05:59;10.68;;;3.30;;
10343;SDS011;5217;43.960;10.954;2023-08-06T11:08:29;10.05;;;4.22;;
10343;SDS011;5217;43.960;10.954;2023-08-06T11:11:07;8.57;;;3.33;;
10343;SDS011;5217;43.960;10.954;2023-08-06T11:13:37;7.32;;;2.92;;
10343;SDS011;5217;43.960;10.954;2023-08-06T11:16:05;7.00;;;3.15;;
10343;SDS011;5217;43.960;10.954;2023-08-06T11:18:35;9.43;;;3.67;;
10343;SDS011;5217;43.960;10.954;2023-08-06T11:21:03;8.73;;;3.30;;
10343;SDS011;5217;43.960;10.954;2023-08-06T11:23:33;8.68;;;3.03;;
10343;SDS011;5217;43.960;10.954;2023-08-06T11:26:02;9.82;;;3.38;;
10343;SDS011;5217;43.960;10.954;2023-08-06T11:28:31;8.23;;;3.30;;
10343;SDS011;5217;43.960;10.954;2023-08-06T11:30:59;9.43;;;3.65;;
10343;SDS011;5217;43.960;10.954;2023-08-06T11:33:30;10.75;;;3.60;;
10343;SDS011;5217;43.960;10.954;2023-08-06T11:35:59;9.98;;;3.00;;
10343;SDS011;5217;43.960;10.954;2023-08-06T11:38:28;8.95;;;3.70;;
10343;SDS011;5217;43.960;10.954;2023-08-06T11:40:59;7.57;;;2.95;;
10343;SDS011;5217;43.960;10.954;2023-08-06T11:43:29;6.35;;;3.40;;
10343;SDS011;5217;43.960;10.954;2023-08-06T11:45:59;7.88;;;2.97;;
10343;SDS011;5217;43.960;10.954;2023-08-06T11:48:27;10.10;;;3.10;;
10343;SDS011;5217;43.960;10.954;2023-08-06T11:50:56;7.28;;;2.90;;
10343;SDS011;5217;43.960;10.954;2023-08-06T11:53:27;6.72;;;3.03;;
10343;SDS011;5217;43.960;10.954;2023-08-06T11:55:58;8.35;;;2.92;;
10343;SDS011;5217;43.960;10.954;2023-08-06T11:58:27;8.05;;;3.13;;
10343;SDS011;5217;43.960;10.954;2023-08-06T12:00:57;10.30;;;3.20;;
10343;SDS011;5217;43.960;10.954;2023-08-06T12:03:25;9.70;;;3.25;;
10343;SDS011;5217;43.960;10.954;2023-08-06T12:05:56;6.10;;;2.95;;
10343;SDS011;5217;43.960;10.954;2023-08-06T12:08:26;9.60;;;2.72;;
10343;SDS011;5217;43.960;10.954;2023-08-06T12:10:54;7.55;;;3.08;;
10343;SDS011;5217;43.960;10.954;2023-08-06T12:13:24;8.98;;;3.42;;
10343;SDS011;5217;43.960;10.954;2023-08-06T12:15:53;9.40;;;3.60;;
10343;SDS011;5217;43.960;10.954;2023-08-06T12:18:23;11.07;;;3.28;;
10343;SDS011;5217;43.960;10.954;2023-08-06T12:20:52;9.38;;;3.58;;
10343;SDS011;5217;43.960;10.954;2023-08-06T12:23:20;5.65;;;2.95;;
10343;SDS011;5217;43.960;10.954;2023-08-06T12:25:48;6.53;;;2.88;;
10343;SDS011;5217;43.960;10.954;2023-08-06T12:28:17;6.28;;;2.60;;
10343;SDS011;5217;43.960;10.954;2023-08-06T12:30:50;6.35;;;2.72;;
10343;SDS011;5217;43.960;10.954;2023-08-06T12:33:21;4.63;;;2.65;;
10343;SDS011;5217;43.960;10.954;2023-08-06T12:35:50;4.65;;;2.47;;
10343;SDS011;5217;43.960;10.954;2023-08-06T12:38:20;8.27;;;3.15;;
10343;SDS011;5217;43.960;10.954;2023-08-06T12:40:49;8.90;;;3.15;;
10343;SDS011;5217;43.960;10.954;2023-08-06T12:43:17;6.47;;;2.55;;
10343;SDS011;5217;43.960;10.954;2023-08-06T12:45:46;4.78;;;2.20;;
10343;SDS011;5217;43.960;10.954;2023-08-06T12:48:16;7.53;;;2.47;;
10343;SDS011;5217;43.960;10.954;2023-08-06T12:50:45;6.35;;;2.60;;
10343;SDS011;5217;43.960;10.954;2023-08-06T12:53:16;5.85;;;2.80;;
10343;SDS011;5217;43.960;10.954;2023-08-06T12:55:44;11.05;;;3.15;;
10343;SDS011;5217;43.960;10.954;2023-08-06T12:58:12;12.32;;;3.58;;
10343;SDS011;5217;43.960;10.954;2023-08-06T13:00:43;11.60;;;3.65;;
10343;SDS011;5217;43.960;10.954;2023-08-06T13:03:13;12.75;;;3.17;;
10343;SDS011;5217;43.960;10.954;2023-08-06T13:05:42;6.20;;;2.53;;
10343;SDS011;5217;43.960;10.954;2023-08-06T13:08:11;7.43;;;2.72;;
10343;SDS011;5217;43.960;10.954;2023-08-06T13:10:39;9.65;;;3.47;;
10343;SDS011;5217;43.960;10.954;2023-08-06T13:13:08;11.90;;;3.28;;
10343;SDS011;5217;43.960;10.954;2023-08-06T13:15:37;7.55;;;2.95;;
10343;SDS011;5217;43.960;10.954;2023-08-06T13:18:06;6.85;;;2.90;;
10343;SDS011;5217;43.960;10.954;2023-08-06T13:20:34;5.72;;;2.28;;
10343;SDS011;5217;43.960;10.954;2023-08-06T13:23:07;5.38;;;2.35;;
10343;SDS011;5217;43.960;10.954;2023-08-06T13:25:35;9.50;;;2.95;;
10343;SDS011;5217;43.960;10.954;2023-08-06T13:28:05;7.13;;;2.80;;
10343;SDS011;5217;43.960;10.954;2023-08-06T13:30:33;9.25;;;2.75;;
10343;SDS011;5217;43.960;10.954;2023-08-06T13:33:08;7.60;;;2.72;;
10343;SDS011;5217;43.960;10.954;2023-08-06T13:35:37;8.77;;;2.80;;
10343;SDS011;5217;43.960;10.954;2023-08-06T13:38:07;9.00;;;2.72;;
10343;SDS011;5217;43.960;10.954;2023-08-06T13:40:35;6.32;;;2.60;;
10343;SDS011;5217;43.960;10.954;2023-08-06T13:43:03;10.30;;;2.97;;
10343;SDS011;5217;43.960;10.954;2023-08-06T13:45:32;7.30;;;2.63;;
10343;SDS011;5217;43.960;10.954;2023-08-06T13:48:01;5.80;;;2.70;;
10343;SDS011;5217;43.960;10.954;2023-08-06T13:50:31;6.13;;;2.50;;
10343;SDS011;5217;43.960;10.954;2023-08-06T13:52:59;3.03;;;2.03;;
10343;SDS011;5217;43.960;10.954;2023-08-06T13:55:30;5.90;;;2.50;;
10343;SDS011;5217;43.960;10.954;2023-08-06T13:57:58;8.73;;;2.53;;
10343;SDS011;5217;43.960;10.954;2023-08-06T14:00:26;5.35;;;2.70;;
10343;SDS011;5217;43.960;10.954;2023-08-06T14:02:55;11.30;;;3.03;;
10343;SDS011;5217;43.960;10.954;2023-08-06T14:05:23;6.60;;;2.90;;
10343;SDS011;5217;43.960;10.954;2023-08-06T14:07:52;12.88;;;3.30;;
10343;SDS011;5217;43.960;10.954;2023-08-06T14:10:21;5.72;;;2.78;;
10343;SDS011;5217;43.960;10.954;2023-08-06T14:12:50;7.55;;;2.72;;
10343;SDS011;5217;43.960;10.954;2023-08-06T14:15:34;10.95;;;3.33;;
10343;SDS011;5217;43.960;10.954;2023-08-06T14:18:03;6.95;;;3.47;;
10343;SDS011;5217;43.960;10.954;2023-08-06T14:20:31;7.72;;;3.33;;
10343;SDS011;5217;43.960;10.954;2023-08-06T14:23:00;9.73;;;3.38;;
10343;SDS011;5217;43.960;10.954;2023-08-06T14:25:28;9.32;;;3.15;;
10343;SDS011;5217;43.960;10.954;2023-08-06T14:27:58;9.77;;;3.28;;
10343;SDS011;5217;43.960;10.954;2023-08-06T14:30:26;9.43;;;3.40;;
10343;SDS011;5217;43.960;10.954;2023-08-06T14:32:54;10.85;;;4.05;;
10343;SDS011;5217;43.960;10.954;2023-08-06T14:35:31;10.05;;;3.97;;
10343;SDS011;5217;43.960;10.954;2023-08-06T14:38:00;12.30;;;4.07;;
10343;SDS011;5217;43.960;10.954;2023-08-06T14:40:29;10.23;;;3.58;;
10343;SDS011;5217;43.960;10.954;2023-08-06T14:43:02;9.32;;;3.53;;
10343;SDS011;5217;43.960;10.954;2023-08-06T14:45:31;10.38;;;3.58;;
10343;SDS011;5217;43.960;10.954;2023-08-06T14:47:59;15.90;;;4.25;;
10343;SDS011;5217;43.960;10.954;2023-08-06T14:50:28;11.18;;;3.80;;
10343;SDS011;5217;43.960;10.954;2023-08-06T14:52:56;8.93;;;3.42;;
10343;SDS011;5217;43.960;10.954;2023-08-06T14:55:30;10.52;;;3.92;;
10343;SDS011;5217;43.960;10.954;2023-08-06T14:58:00;9.55;;;3.50;;
10343;SDS011;5217;43.960;10.954;2023-08-06T15:00:30;11.45;;;3.88;;
10343;SDS011;5217;43.960;10.954;2023-08-06T15:02:58;10.10;;;3.72;;
10343;SDS011;5217;43.960;10.954;2023-08-06T15:05:27;10.80;;;3.50;;
10343;SDS011;5217;43.960;10.954;2023-08-06T15:07:55;13.02;;;3.85;;
10343;SDS011;5217;43.960;10.954;2023-08-06T15:10:24;13.95;;;3.75;;